sensor_id;sensor_type;location;lat;lon;timestamp;P1;durP1;ratioP1;P2;durP2;ratioP2
16522;SDS011;19889;52.546;13.348;2024-01-07T00:00:34;4.80;;;2.90;;
16522;SDS011;19889;52.546;13.348;2024-01-07T00:03:04;4.33;;;2.87;;
16522;SDS011;19889;52.546;13.348;2024-01-07T00:05:31;6.77;;;3.47;;
16522;SDS011;19889;52.546;13.348;2024-01-07T00:07:58;5.00;;;3.00;;
16522;SDS011;19889;52.546;13.348;2024-01-07T00:10:27;6.67;;;3.77;;
16522;SDS011;19889;52.546;13.348;2024-01-07T00:12:54;7.73;;;3.40;;
16522;SDS011;19889;52.546;13.348;2024-01-07T00:15:22;5.10;;;3.30;;
16522;SDS011;19889;52.546;13.348;2024-01-07T00:17:52;4.70;;;3.23;;
16522;SDS011;19889;52.546;13.348;2024-01-07T00:20:19;3.87;;;2.90;;
16522;SDS011;19889;52.546;13.348;2024-01-07T00:22:46;4.67;;;3.13;;
16522;SDS011;19889;52.546;13.348;2024-01-07T00:25:14;4.70;;;3.43;;
16522;SDS011;19889;52.546;13.348;2024-01-07T00:27:42;5.33;;;4.10;;
16522;SDS011;19889;52.546;13.348;2024-01-07T00:30:10;4.67;;;3.40;;
16522;SDS011;19889;52.546;13.348;2024-01-07T00:32:38;5.93;;;3.30;;
16522;SDS011;19889;52.546;13.348;2024-01-07T00:35:05;6.90;;;3.20;;
16522;SDS011;19889;52.546;13.348;2024-01-07T00:37:33;5.73;;;3.00;;
16522;SDS011;19889;52.546;13.348;2024-01-07T00:40:00;5.80;;;2.87;;
16522;SDS011;19889;52.546;13.348;2024-01-07T00:42:28;5.10;;;3.27;;
16522;SDS011;19889;52.546;13.348;2024-01-07T00:44:56;4.20;;;3.17;;
16522;SDS011;19889;52.546;13.348;2024-01-07T00:47:23;6.77;;;3.00;;
16522;SDS011;19889;52.546;13.348;2024-01-07T00:49:50;5.27;;;3.03;;
16522;SDS011;19889;52.546;13.348;2024-01-07T00:52:18;3.40;;;2.37;;
16522;SDS011;19889;52.546;13.348;2024-01-07T00:54:46;3.93;;;2.60;;
16522;SDS011;19889;52.546;13.348;2024-01-07T00:57:13;4.40;;;3.10;;
16522;SDS011;19889;52.546;13.348;2024-01-07T00:59:41;5.03;;;3.10;;
16522;SDS011;19889;52.546;13.348;2024-01-07T01:02:09;5.30;;;2.90;;
16522;SDS011;19889;52.546;13.348;2024-01-07T01:04:38;3.47;;;2.20;;
16522;SDS011;19889;52.546;13.348;2024-01-07T01:07:06;3.33;;;2.77;;
16522;SDS011;19889;52.546;13.348;2024-01-07T01:09:34;4.60;;;2.77;;
16522;SDS011;19889;52.546;13.348;2024-01-07T01:12:01;4.43;;;2.43;;
16522;SDS011;19889;52.546;13.348;2024-01-07T01:14:28;3.37;;;2.40;;
16522;SDS011;19889;52.546;13.348;2024-01-07T01:16:56;5.53;;;2.93;;
16522;SDS011;19889;52.546;13.348;2024-01-07T01:19:25;2.53;;;2.30;;
16522;SDS011;19889;52.546;13.348;2024-01-07T01:21:52;4.13;;;2.57;;
16522;SDS011;19889;52.546;13.348;2024-01-07T01:24:19;3.40;;;2.30;;
16522;SDS011;19889;52.546;13.348;2024-01-07T01:26:46;3.47;;;2.40;;
16522;SDS011;19889;52.546;13.348;2024-01-07T01:29:14;4.10;;;2.33;;
16522;SDS011;19889;52.546;13.348;2024-01-07T01:31:41;3.70;;;2.43;;
16522;SDS011;19889;52.546;13.348;2024-01-07T01:34:08;3.30;;;2.20;;
16522;SDS011;19889;52.546;13.348;2024-01-07T01:36:37;3.10;;;2.20;;
16522;SDS011;19889;52.546;13.348;2024-01-07T01:39:05;2.43;;;2.17;;
16522;SDS011;19889;52.546;13.348;2024-01-07T01:41:32;3.50;;;2.73;;
16522;SDS011;19889;52.546;13.348;2024-01-07T01:44:00;6.20;;;2.93;;
16522;SDS011;19889;52.546;13.348;2024-01-07T01:46:28;3.17;;;2.70;;
16522;SDS011;19889;52.546;13.348;2024-01-07T01:48:56;3.33;;;2.63;;
16522;SDS011;19889;52.546;13.348;2024-01-07T01:51:24;4.43;;;2.47;;
16522;SDS011;19889;52.546;13.348;2024-01-07T01:53:53;4.50;;;2.27;;
16522;SDS011;19889;52.546;13.348;2024-01-07T01:56:23;2.40;;;1.70;;
16522;SDS011;19889;52.546;13.348;2024-01-07T01:58:53;4.97;;;3.00;;
16522;SDS011;19889;52.546;13.348;2024-01-07T02:01:22;5.53;;;2.67;;
16522;SDS011;19889;52.546;13.348;2024-01-07T02:03:50;4.30;;;2.60;;
16522;SDS011;19889;52.546;13.348;2024-01-07T02:06:19;5.03;;;3.03;;
16522;SDS011;19889;52.546;13.348;2024-01-07T02:08:47;5.50;;;3.20;;
16522;SDS011;19889;52.546;13.348;2024-01-07T02:11:17;2.90;;;2.37;;
16522;SDS011;19889;52.546;13.348;2024-01-07T02:13:45;3.30;;;2.10;;
16522;SDS011;19889;52.546;13.348;2024-01-07T02:16:12;4.77;;;2.70;;
16522;SDS011;19889;52.546;13.348;2024-01-07T02:18:40;4.57;;;2.77;;
16522;SDS011;19889;52.546;13.348;2024-01-07T02:21:08;3.27;;;2.60;;
16522;SDS011;19889;52.546;13.348;2024-01-07T02:23:36;4.77;;;2.97;;
16522;SDS011;19889;52.546;13.348;2024-01-07T02:26:05;4.10;;;2.47;;
16522;SDS011;19889;52.546;13.348;2024-01-07T02:28:33;3.67;;;2.70;;
16522;SDS011;19889;52.546;13.348;2024-01-07T02:31:00;3.03;;;2.70;;
16522;SDS011;19889;52.546;13.348;2024-01-07T02:33:27;4.20;;;2.63;;
16522;SDS011;19889;52.546;13.348;2024-01-07T02:35:56;2.63;;;2.20;;
16522;SDS011;19889;52.546;13.348;2024-01-07T02:38:23;3.03;;;2.20;;
16522;SDS011;19889;52.546;13.348;2024-01-07T02:40:50;2.33;;;2.00;;
16522;SDS011;19889;52.546;13.348;2024-01-07T02:43:19;3.80;;;2.60;;
16522;SDS011;19889;52.546;13.348;2024-01-07T02:45:46;3.57;;;2.17;;
16522;SDS011;19889;52.546;13.348;2024-01-07T02:48:14;3.33;;;2.07;;
16522;SDS011;19889;52.546;13.348;2024-01-07T02:50:41;3.83;;;2.10;;
16522;SDS011;19889;52.546;13.348;2024-01-07T02:53:08;3.43;;;2.30;;
16522;SDS011;19889;52.546;13.348;2024-01-07T02:55:38;2.27;;;2.07;;
16522;SDS011;19889;52.546;13.348;2024-01-07T02:58:05;2.20;;;2.00;;
16522;SDS011;19889;52.546;13.348;2024-01-07T03:00:34;2.40;;;2.00;;
16522;SDS011;19889;52.546;13.348;2024-01-07T03:03:01;2.20;;;2.00;;
16522;SDS011;19889;52.546;13.348;2024-01-07T03:05:28;3.20;;;2.20;;
16522;SDS011;19889;52.546;13.348;2024-01-07T03:07:57;3.73;;;2.17;;
16522;SDS011;19889;52.546;13.348;2024-01-07T03:10:25;2.70;;;1.97;;
16522;SDS011;19889;52.546;13.348;2024-01-07T03:12:53;2.83;;;2.03;;
16522;SDS011;19889;52.546;13.348;2024-01-07T03:15:20;2.53;;;2.10;;
16522;SDS011;19889;52.546;13.348;2024-01-07T03:17:49;4.87;;;2.20;;
16522;SDS011;19889;52.546;13.348;2024-01-07T03:20:16;3.37;;;1.97;;
16522;SDS011;19889;52.546;13.348;2024-01-07T03:22:43;2.30;;;1.80;;
16522;SDS011;19889;52.546;13.348;2024-01-07T03:25:11;2.73;;;1.80;;
16522;SDS011;19889;52.546;13.348;2024-01-07T03:27:38;2.73;;;1.40;;
16522;SDS011;19889;52.546;13.348;2024-01-07T03:30:06;3.60;;;2.10;;
16522;SDS011;19889;52.546;13.348;2024-01-07T03:32:35;3.80;;;1.93;;
16522;SDS011;19889;52.546;13.348;2024-01-07T03:35:04;3.17;;;2.03;;
16522;SDS011;19889;52.546;13.348;2024-01-07T03:37:34;2.47;;;2.00;;
16522;SDS011;19889;52.546;13.348;2024-01-07T03:40:01;3.40;;;1.87;;
16522;SDS011;19889;52.546;13.348;2024-01-07T03:42:29;1.93;;;1.73;;
16522;SDS011;19889;52.546;13.348;2024-01-07T03:44:56;1.97;;;1.80;;
16522;SDS011;19889;52.546;13.348;2024-01-07T03:47:23;4.67;;;2.00;;
16522;SDS011;19889;52.546;13.348;2024-01-07T03:49:50;1.97;;;1.80;;
16522;SDS011;19889;52.546;13.348;2024-01-07T03:52:19;2.10;;;1.90;;
16522;SDS011;19889;52.546;13.348;2024-01-07T03:54:46;2.57;;;2.03;;
16522;SDS011;19889;52.546;13.348;2024-01-07T03:57:14;2.27;;;2.00;;
16522;SDS011;19889;52.546;13.348;2024-01-07T03:59:41;3.07;;;2.00;;
16522;SDS011;19889;52.546;13.348;2024-01-07T04:02:08;2.33;;;2.13;;
16522;SDS011;19889;52.546;13.348;2024-01-07T04:04:37;3.30;;;2.23;;
16522;SDS011;19889;52.546;13.348;2024-01-07T04:07:04;2.87;;;2.20;;
16522;SDS011;19889;52.546;13.348;2024-01-07T04:09:32;3.40;;;2.30;;
16522;SDS011;19889;52.546;13.348;2024-01-07T04:12:00;5.37;;;2.27;;
16522;SDS011;19889;52.546;13.348;2024-01-07T04:14:27;1.93;;;1.70;;
16522;SDS011;19889;52.546;13.348;2024-01-07T04:16:54;3.03;;;2.10;;
16522;SDS011;19889;52.546;13.348;2024-01-07T04:19:22;5.20;;;2.20;;
16522;SDS011;19889;52.546;13.348;2024-01-07T04:21:49;2.27;;;1.90;;
16522;SDS011;19889;52.546;13.348;2024-01-07T04:24:16;1.70;;;1.60;;
16522;SDS011;19889;52.546;13.348;2024-01-07T04:26:45;3.03;;;2.20;;
16522;SDS011;19889;52.546;13.348;2024-01-07T04:29:12;2.10;;;1.90;;
16522;SDS011;19889;52.546;13.348;2024-01-07T04:31:39;2.77;;;2.17;;
16522;SDS011;19889;52.546;13.348;2024-01-07T04:34:07;3.00;;;1.60;;
16522;SDS011;19889;52.546;13.348;2024-01-07T04:36:34;3.17;;;2.27;;
16522;SDS011;19889;52.546;13.348;2024-01-07T04:39:02;4.80;;;2.50;;
16522;SDS011;19889;52.546;13.348;2024-01-07T04:41:29;2.37;;;1.90;;
16522;SDS011;19889;52.546;13.348;2024-01-07T04:43:58;2.77;;;2.10;;
16522;SDS011;19889;52.546;13.348;2024-01-07T04:46:25;2.90;;;2.00;;
16522;SDS011;19889;52.546;13.348;2024-01-07T04:48:52;3.13;;;2.13;;
16522;SDS011;19889;52.546;13.348;2024-01-07T04:51:20;4.13;;;2.10;;
16522;SDS011;19889;52.546;13.348;2024-01-07T04:53:47;3.67;;;2.10;;
16522;SDS011;19889;52.546;13.348;2024-01-07T04:56:14;2.20;;;2.00;;
16522;SDS011;19889;52.546;13.348;2024-01-07T04:58:42;3.00;;;2.10;;
16522;SDS011;19889;52.546;13.348;2024-01-07T05:01:10;1.97;;;1.70;;
16522;SDS011;19889;52.546;13.348;2024-01-07T05:03:38;2.37;;;1.83;;
16522;SDS011;19889;52.546;13.348;2024-01-07T05:06:07;2.57;;;2.00;;
16522;SDS011;19889;52.546;13.348;2024-01-07T05:08:35;3.10;;;2.80;;
16522;SDS011;19889;52.546;13.348;2024-01-07T05:11:03;2.47;;;2.27;;
16522;SDS011;19889;52.546;13.348;2024-01-07T05:13:31;2.47;;;1.90;;
16522;SDS011;19889;52.546;13.348;2024-01-07T05:15:58;3.80;;;2.50;;
16522;SDS011;19889;52.546;13.348;2024-01-07T05:18:27;3.80;;;2.67;;
16522;SDS011;19889;52.546;13.348;2024-01-07T05:20:54;2.97;;;1.73;;
16522;SDS011;19889;52.546;13.348;2024-01-07T05:23:22;3.30;;;1.90;;
16522;SDS011;19889;52.546;13.348;2024-01-07T05:25:49;2.37;;;1.70;;
16522;SDS011;19889;52.546;13.348;2024-01-07T05:28:16;3.20;;;2.20;;
16522;SDS011;19889;52.546;13.348;2024-01-07T05:30:45;2.70;;;1.80;;
16522;SDS011;19889;52.546;13.348;2024-01-07T05:33:12;2.20;;;2.00;;
16522;SDS011;19889;52.546;13.348;2024-01-07T05:35:41;1.73;;;1.63;;
16522;SDS011;19889;52.546;13.348;2024-01-07T05:38:09;3.33;;;2.27;;
16522;SDS011;19889;52.546;13.348;2024-01-07T05:40:36;3.33;;;2.00;;
16522;SDS011;19889;52.546;13.348;2024-01-07T05:43:04;3.13;;;2.07;;
16522;SDS011;19889;52.546;13.348;2024-01-07T05:45:31;2.97;;;2.20;;
16522;SDS011;19889;52.546;13.348;2024-01-07T05:47:58;2.37;;;2.10;;
16522;SDS011;19889;52.546;13.348;2024-01-07T05:50:26;2.20;;;1.90;;
16522;SDS011;19889;52.546;13.348;2024-01-07T05:52:54;3.73;;;1.97;;
16522;SDS011;19889;52.546;13.348;2024-01-07T05:55:22;2.77;;;1.97;;
16522;SDS011;19889;52.546;13.348;2024-01-07T05:57:49;3.10;;;2.00;;
16522;SDS011;19889;52.546;13.348;2024-01-07T06:00:17;4.53;;;2.57;;
16522;SDS011;19889;52.546;13.348;2024-01-07T06:02:44;2.93;;;2.20;;
16522;SDS011;19889;52.546;13.348;2024-01-07T06:05:11;3.67;;;2.37;;
16522;SDS011;19889;52.546;13.348;2024-01-07T06:07:39;3.37;;;2.37;;
16522;SDS011;19889;52.546;13.348;2024-01-07T06:10:08;3.67;;;2.43;;
16522;SDS011;19889;52.546;13.348;2024-01-07T06:12:35;3.47;;;2.33;;
16522;SDS011;19889;52.546;13.348;2024-01-07T06:15:03;2.27;;;1.93;;
16522;SDS011;19889;52.546;13.348;2024-01-07T06:17:31;2.63;;;2.40;;
16522;SDS011;19889;52.546;13.348;2024-01-07T06:19:58;3.53;;;2.00;;
16522;SDS011;19889;52.546;13.348;2024-01-07T06:22:26;3.20;;;2.30;;
16522;SDS011;19889;52.546;13.348;2024-01-07T06:24:53;2.27;;;2.07;;
16522;SDS011;19889;52.546;13.348;2024-01-07T06:27:22;2.23;;;2.03;;
16522;SDS011;19889;52.546;13.348;2024-01-07T06:29:49;3.43;;;2.20;;
16522;SDS011;19889;52.546;13.348;2024-01-07T06:32:16;2.10;;;1.90;;
16522;SDS011;19889;52.546;13.348;2024-01-07T06:34:43;2.73;;;2.47;;
16522;SDS011;19889;52.546;13.348;2024-01-07T06:37:11;3.83;;;2.77;;
16522;SDS011;19889;52.546;13.348;2024-01-07T06:39:39;4.40;;;2.43;;
16522;SDS011;19889;52.546;13.348;2024-01-07T06:42:06;5.70;;;2.90;;
16522;SDS011;19889;52.546;13.348;2024-01-07T06:44:35;4.10;;;2.43;;
16522;SDS011;19889;52.546;13.348;2024-01-07T06:47:02;2.87;;;2.50;;
16522;SDS011;19889;52.546;13.348;2024-01-07T06:49:30;4.37;;;2.77;;
16522;SDS011;19889;52.546;13.348;2024-01-07T06:51:57;5.00;;;2.60;;
16522;SDS011;19889;52.546;13.348;2024-01-07T06:54:25;6.43;;;2.60;;
16522;SDS011;19889;52.546;13.348;2024-01-07T06:56:52;2.93;;;2.30;;
16522;SDS011;19889;52.546;13.348;2024-01-07T06:59:20;3.57;;;2.30;;
16522;SDS011;19889;52.546;13.348;2024-01-07T07:01:49;3.70;;;2.37;;
16522;SDS011;19889;52.546;13.348;2024-01-07T07:04:16;3.07;;;2.47;;
16522;SDS011;19889;52.546;13.348;2024-01-07T07:06:44;2.80;;;2.23;;
16522;SDS011;19889;52.546;13.348;2024-01-07T07:09:11;3.43;;;2.60;;
16522;SDS011;19889;52.546;13.348;2024-01-07T07:11:40;4.07;;;2.60;;
16522;SDS011;19889;52.546;13.348;2024-01-07T07:14:08;2.67;;;2.37;;
16522;SDS011;19889;52.546;13.348;2024-01-07T07:16:35;2.93;;;1.90;;
16522;SDS011;19889;52.546;13.348;2024-01-07T07:19:04;4.60;;;2.57;;
16522;SDS011;19889;52.546;13.348;2024-01-07T07:21:32;3.23;;;2.40;;
16522;SDS011;19889;52.546;13.348;2024-01-07T07:23:59;2.77;;;2.40;;
16522;SDS011;19889;52.546;13.348;2024-01-07T07:26:27;3.37;;;2.40;;
16522;SDS011;19889;52.546;13.348;2024-01-07T07:28:54;3.63;;;2.70;;
16522;SDS011;19889;52.546;13.348;2024-01-07T07:31:21;3.70;;;2.83;;
16522;SDS011;19889;52.546;13.348;2024-01-07T07:33:49;3.40;;;2.87;;
16522;SDS011;19889;52.546;13.348;2024-01-07T07:36:18;2.73;;;2.40;;
16522;SDS011;19889;52.546;13.348;2024-01-07T07:38:46;3.10;;;2.43;;
16522;SDS011;19889;52.546;13.348;2024-01-07T07:41:13;3.20;;;2.13;;
16522;SDS011;19889;52.546;13.348;2024-01-07T07:43:40;3.20;;;2.33;;
16522;SDS011;19889;52.546;13.348;2024-01-07T07:46:07;3.27;;;2.50;;
16522;SDS011;19889;52.546;13.348;2024-01-07T07:48:37;2.00;;;1.80;;
16522;SDS011;19889;52.546;13.348;2024-01-07T07:51:04;3.20;;;2.13;;
16522;SDS011;19889;52.546;13.348;2024-01-07T07:53:33;2.67;;;2.33;;
16522;SDS011;19889;52.546;13.348;2024-01-07T07:56:01;2.13;;;1.93;;
16522;SDS011;19889;52.546;13.348;2024-01-07T07:58:29;4.17;;;2.90;;
16522;SDS011;19889;52.546;13.348;2024-01-07T08:00:56;2.57;;;2.33;;
16522;SDS011;19889;52.546;13.348;2024-01-07T08:03:24;4.30;;;2.80;;
16522;SDS011;19889;52.546;13.348;2024-01-07T08:05:51;3.20;;;2.40;;
16522;SDS011;19889;52.546;13.348;2024-01-07T08:08:19;3.10;;;2.53;;
16522;SDS011;19889;52.546;13.348;2024-01-07T08:10:47;2.70;;;2.20;;
16522;SDS011;19889;52.546;13.348;2024-01-07T08:13:15;4.97;;;3.07;;
16522;SDS011;19889;52.546;13.348;2024-01-07T08:15:45;2.53;;;2.27;;
16522;SDS011;19889;52.546;13.348;2024-01-07T08:18:13;2.60;;;2.40;;
16522;SDS011;19889;52.546;13.348;2024-01-07T08:20:41;3.43;;;2.20;;
16522;SDS011;19889;52.546;13.348;2024-01-07T08:23:08;3.40;;;2.50;;
16522;SDS011;19889;52.546;13.348;2024-01-07T08:25:35;4.57;;;2.70;;
16522;SDS011;19889;52.546;13.348;2024-01-07T08:28:04;3.57;;;2.60;;
16522;SDS011;19889;52.546;13.348;2024-01-07T08:30:32;3.87;;;2.70;;
16522;SDS011;19889;52.546;13.348;2024-01-07T08:32:59;4.53;;;3.00;;
16522;SDS011;19889;52.546;13.348;2024-01-07T08:35:27;2.77;;;2.30;;
16522;SDS011;19889;52.546;13.348;2024-01-07T08:37:54;2.60;;;2.40;;
16522;SDS011;19889;52.546;13.348;2024-01-07T08:40:21;2.80;;;2.57;;
16522;SDS011;19889;52.546;13.348;2024-01-07T08:42:49;2.53;;;2.33;;
16522;SDS011;19889;52.546;13.348;2024-01-07T08:45:18;4.10;;;2.30;;
16522;SDS011;19889;52.546;13.348;2024-01-07T08:47:45;2.07;;;1.93;;
16522;SDS011;19889;52.546;13.348;2024-01-07T08:50:13;4.33;;;2.80;;
16522;SDS011;19889;52.546;13.348;2024-01-07T08:52:40;3.93;;;3.43;;
16522;SDS011;19889;52.546;13.348;2024-01-07T08:55:08;5.43;;;3.40;;
16522;SDS011;19889;52.546;13.348;2024-01-07T08:57:36;5.73;;;3.80;;
16522;SDS011;19889;52.546;13.348;2024-01-07T09:00:04;4.53;;;3.47;;
16522;SDS011;19889;52.546;13.348;2024-01-07T09:02:34;4.20;;;3.00;;
16522;SDS011;19889;52.546;13.348;2024-01-07T09:05:05;5.13;;;3.03;;
16522;SDS011;19889;52.546;13.348;2024-01-07T09:07:33;7.10;;;3.40;;
16522;SDS011;19889;52.546;13.348;2024-01-07T09:10:00;3.90;;;3.03;;
16522;SDS011;19889;52.546;13.348;2024-01-07T09:12:28;3.83;;;2.97;;
16522;SDS011;19889;52.546;13.348;2024-01-07T09:14:55;4.70;;;3.30;;
16522;SDS011;19889;52.546;13.348;2024-01-07T09:17:22;5.37;;;3.90;;
16522;SDS011;19889;52.546;13.348;2024-01-07T09:19:51;5.13;;;3.73;;
16522;SDS011;19889;52.546;13.348;2024-01-07T09:22:18;5.13;;;3.40;;
16522;SDS011;19889;52.546;13.348;2024-01-07T09:24:47;5.17;;;4.10;;
16522;SDS011;19889;52.546;13.348;2024-01-07T09:27:14;4.50;;;3.80;;
16522;SDS011;19889;52.546;13.348;2024-01-07T09:29:41;5.30;;;3.57;;
16522;SDS011;19889;52.546;13.348;2024-01-07T09:32:08;6.07;;;3.57;;
16522;SDS011;19889;52.546;13.348;2024-01-07T09:34:36;5.70;;;3.73;;
16522;SDS011;19889;52.546;13.348;2024-01-07T09:37:05;4.00;;;3.27;;
16522;SDS011;19889;52.546;13.348;2024-01-07T09:39:32;5.87;;;3.70;;
16522;SDS011;19889;52.546;13.348;2024-01-07T09:41:59;5.17;;;3.60;;
16522;SDS011;19889;52.546;13.348;2024-01-07T09:44:27;4.93;;;4.00;;
16522;SDS011;19889;52.546;13.348;2024-01-07T09:46:54;5.67;;;3.90;;
16522;SDS011;19889;52.546;13.348;2024-01-07T09:49:23;7.30;;;4.40;;
16522;SDS011;19889;52.546;13.348;2024-01-07T09:51:51;6.37;;;3.90;;
16522;SDS011;19889;52.546;13.348;2024-01-07T09:54:27;6.97;;;4.00;;
16522;SDS011;19889;52.546;13.348;2024-01-07T09:56:55;6.87;;;4.17;;
16522;SDS011;19889;52.546;13.348;2024-01-07T09:59:27;4.80;;;3.57;;
16522;SDS011;19889;52.546;13.348;2024-01-07T10:01:54;5.50;;;3.80;;
16522;SDS011;19889;52.546;13.348;2024-01-07T10:04:22;5.23;;;3.53;;
16522;SDS011;19889;52.546;13.348;2024-01-07T10:06:50;6.97;;;4.27;;
16522;SDS011;19889;52.546;13.348;2024-01-07T10:09:19;5.00;;;4.17;;
16522;SDS011;19889;52.546;13.348;2024-01-07T10:11:50;5.53;;;3.83;;
16522;SDS011;19889;52.546;13.348;2024-01-07T10:14:17;6.27;;;4.07;;
16522;SDS011;19889;52.546;13.348;2024-01-07T10:16:44;4.87;;;3.90;;
16522;SDS011;19889;52.546;13.348;2024-01-07T10:19:12;5.77;;;4.30;;
16522;SDS011;19889;52.546;13.348;2024-01-07T10:21:46;6.47;;;4.20;;
16522;SDS011;19889;52.546;13.348;2024-01-07T10:24:24;5.50;;;4.27;;
16522;SDS011;19889;52.546;13.348;2024-01-07T10:26:53;5.77;;;3.97;;
16522;SDS011;19889;52.546;13.348;2024-01-07T10:29:21;6.30;;;4.40;;
16522;SDS011;19889;52.546;13.348;2024-01-07T10:31:49;6.37;;;4.23;;
16522;SDS011;19889;52.546;13.348;2024-01-07T10:34:16;6.43;;;4.53;;
16522;SDS011;19889;52.546;13.348;2024-01-07T10:36:46;6.67;;;4.20;;
16522;SDS011;19889;52.546;13.348;2024-01-07T10:39:13;5.70;;;4.30;;
16522;SDS011;19889;52.546;13.348;2024-01-07T10:41:41;5.70;;;4.23;;
16522;SDS011;19889;52.546;13.348;2024-01-07T10:44:12;7.00;;;4.60;;
16522;SDS011;19889;52.546;13.348;2024-01-07T10:46:40;4.73;;;3.60;;
16522;SDS011;19889;52.546;13.348;2024-01-07T10:49:11;7.10;;;3.97;;
16522;SDS011;19889;52.546;13.348;2024-01-07T10:51:45;5.53;;;3.90;;
16522;SDS011;19889;52.546;13.348;2024-01-07T10:54:17;4.63;;;3.67;;
16522;SDS011;19889;52.546;13.348;2024-01-07T10:56:47;5.23;;;3.90;;
16522;SDS011;19889;52.546;13.348;2024-01-07T10:59:18;6.10;;;4.30;;
16522;SDS011;19889;52.546;13.348;2024-01-07T11:01:46;5.90;;;4.20;;
16522;SDS011;19889;52.546;13.348;2024-01-07T11:04:14;4.70;;;3.93;;
16522;SDS011;19889;52.546;13.348;2024-01-07T11:06:51;5.60;;;3.90;;
16522;SDS011;19889;52.546;13.348;2024-01-07T11:09:28;6.13;;;4.27;;
16522;SDS011;19889;52.546;13.348;2024-01-07T11:12:02;5.67;;;4.07;;
16522;SDS011;19889;52.546;13.348;2024-01-07T11:14:35;5.53;;;4.03;;
16522;SDS011;19889;52.546;13.348;2024-01-07T11:17:10;6.27;;;3.93;;
16522;SDS011;19889;52.546;13.348;2024-01-07T11:19:38;5.87;;;4.00;;
16522;SDS011;19889;52.546;13.348;2024-01-07T11:22:24;5.17;;;3.57;;
16522;SDS011;19889;52.546;13.348;2024-01-07T11:24:53;3.83;;;3.53;;
16522;SDS011;19889;52.546;13.348;2024-01-07T11:27:22;5.50;;;3.90;;
16522;SDS011;19889;52.546;13.348;2024-01-07T11:29:54;4.17;;;3.73;;
16522;SDS011;19889;52.546;13.348;2024-01-07T11:32:22;4.30;;;3.13;;
16522;SDS011;19889;52.546;13.348;2024-01-07T11:34:51;5.67;;;3.57;;
16522;SDS011;19889;52.546;13.348;2024-01-07T11:37:19;4.97;;;3.90;;
16522;SDS011;19889;52.546;13.348;2024-01-07T11:39:47;5.23;;;3.90;;
16522;SDS011;19889;52.546;13.348;2024-01-07T11:42:17;5.63;;;4.10;;
16522;SDS011;19889;52.546;13.348;2024-01-07T11:44:45;5.93;;;4.23;;
16522;SDS011;19889;52.546;13.348;2024-01-07T11:47:15;5.70;;;3.70;;
16522;SDS011;19889;52.546;13.348;2024-01-07T11:49:43;4.33;;;3.57;;
16522;SDS011;19889;52.546;13.348;2024-01-07T11:52:11;6.07;;;4.07;;
16522;SDS011;19889;52.546;13.348;2024-01-07T11:54:39;6.47;;;3.90;;
16522;SDS011;19889;52.546;13.348;2024-01-07T11:57:06;5.03;;;4.00;;
16522;SDS011;19889;52.546;13.348;2024-01-07T11:59:34;4.53;;;4.03;;
16522;SDS011;19889;52.546;13.348;2024-01-07T12:02:03;7.57;;;3.97;;
16522;SDS011;19889;52.546;13.348;2024-01-07T12:04:32;6.77;;;4.73;;
16522;SDS011;19889;52.546;13.348;2024-01-07T12:07:00;6.57;;;4.10;;
16522;SDS011;19889;52.546;13.348;2024-01-07T12:09:28;6.53;;;4.97;;
16522;SDS011;19889;52.546;13.348;2024-01-07T12:11:56;5.13;;;4.10;;
16522;SDS011;19889;52.546;13.348;2024-01-07T12:14:23;5.73;;;3.83;;
16522;SDS011;19889;52.546;13.348;2024-01-07T12:16:52;5.30;;;3.90;;
16522;SDS011;19889;52.546;13.348;2024-01-07T12:19:19;7.47;;;3.83;;
16522;SDS011;19889;52.546;13.348;2024-01-07T12:21:52;7.43;;;3.63;;
16522;SDS011;19889;52.546;13.348;2024-01-07T12:24:28;3.57;;;3.27;;
16522;SDS011;19889;52.546;13.348;2024-01-07T12:26:55;4.43;;;3.60;;
16522;SDS011;19889;52.546;13.348;2024-01-07T12:29:22;4.60;;;3.57;;
16522;SDS011;19889;52.546;13.348;2024-01-07T12:31:51;4.37;;;3.33;;
16522;SDS011;19889;52.546;13.348;2024-01-07T12:34:20;5.10;;;3.47;;
16522;SDS011;19889;52.546;13.348;2024-01-07T12:36:48;6.23;;;3.77;;
16522;SDS011;19889;52.546;13.348;2024-01-07T12:39:18;6.53;;;3.47;;
16522;SDS011;19889;52.546;13.348;2024-01-07T12:41:46;4.87;;;3.10;;
16522;SDS011;19889;52.546;13.348;2024-01-07T12:44:13;5.70;;;3.43;;
16522;SDS011;19889;52.546;13.348;2024-01-07T12:46:41;4.93;;;3.40;;
16522;SDS011;19889;52.546;13.348;2024-01-07T12:49:08;6.63;;;4.67;;
16522;SDS011;19889;52.546;13.348;2024-01-07T12:51:36;4.90;;;3.20;;
16522;SDS011;19889;52.546;13.348;2024-01-07T12:54:04;4.47;;;3.53;;
16522;SDS011;19889;52.546;13.348;2024-01-07T12:56:32;4.27;;;3.20;;
16522;SDS011;19889;52.546;13.348;2024-01-07T12:58:59;4.93;;;3.17;;
16522;SDS011;19889;52.546;13.348;2024-01-07T13:01:26;5.20;;;3.33;;
16522;SDS011;19889;52.546;13.348;2024-01-07T13:03:54;6.47;;;4.30;;
16522;SDS011;19889;52.546;13.348;2024-01-07T13:06:21;9.17;;;5.53;;
16522;SDS011;19889;52.546;13.348;2024-01-07T13:08:49;7.03;;;4.77;;
16522;SDS011;19889;52.546;13.348;2024-01-07T13:11:18;5.60;;;3.90;;
16522;SDS011;19889;52.546;13.348;2024-01-07T13:13:45;7.03;;;3.70;;
16522;SDS011;19889;52.546;13.348;2024-01-07T13:16:13;3.57;;;3.23;;
16522;SDS011;19889;52.546;13.348;2024-01-07T13:18:40;6.33;;;3.80;;
16522;SDS011;19889;52.546;13.348;2024-01-07T13:21:07;5.27;;;3.13;;
16522;SDS011;19889;52.546;13.348;2024-01-07T13:23:35;5.23;;;3.57;;
16522;SDS011;19889;52.546;13.348;2024-01-07T13:26:02;4.00;;;3.10;;
16522;SDS011;19889;52.546;13.348;2024-01-07T13:28:32;4.73;;;3.70;;
16522;SDS011;19889;52.546;13.348;2024-01-07T13:31:00;3.80;;;2.97;;
16522;SDS011;19889;52.546;13.348;2024-01-07T13:33:28;4.40;;;3.50;;
16522;SDS011;19889;52.546;13.348;2024-01-07T13:35:56;4.33;;;3.30;;
16522;SDS011;19889;52.546;13.348;2024-01-07T13:38:23;4.80;;;3.30;;
16522;SDS011;19889;52.546;13.348;2024-01-07T13:40:50;6.00;;;4.30;;
16522;SDS011;19889;52.546;13.348;2024-01-07T13:43:18;7.90;;;3.80;;
16522;SDS011;19889;52.546;13.348;2024-01-07T13:45:48;4.90;;;2.93;;
16522;SDS011;19889;52.546;13.348;2024-01-07T13:48:16;3.50;;;2.80;;
16522;SDS011;19889;52.546;13.348;2024-01-07T13:50:44;4.03;;;3.20;;
16522;SDS011;19889;52.546;13.348;2024-01-07T13:53:13;5.73;;;3.10;;
16522;SDS011;19889;52.546;13.348;2024-01-07T13:55:41;3.67;;;2.53;;
16522;SDS011;19889;52.546;13.348;2024-01-07T13:58:08;4.83;;;2.63;;
16522;SDS011;19889;52.546;13.348;2024-01-07T14:00:35;5.07;;;3.07;;
16522;SDS011;19889;52.546;13.348;2024-01-07T14:03:04;4.73;;;2.90;;
16522;SDS011;19889;52.546;13.348;2024-01-07T14:05:32;3.17;;;2.67;;
16522;SDS011;19889;52.546;13.348;2024-01-07T14:07:59;4.67;;;3.23;;
16522;SDS011;19889;52.546;13.348;2024-01-07T14:10:26;4.70;;;3.40;;
16522;SDS011;19889;52.546;13.348;2024-01-07T14:12:54;3.40;;;2.63;;
16522;SDS011;19889;52.546;13.348;2024-01-07T14:15:21;4.23;;;2.90;;
16522;SDS011;19889;52.546;13.348;2024-01-07T14:17:49;3.00;;;2.53;;
16522;SDS011;19889;52.546;13.348;2024-01-07T14:20:17;3.27;;;2.87;;
16522;SDS011;19889;52.546;13.348;2024-01-07T14:22:46;4.43;;;2.90;;
16522;SDS011;19889;52.546;13.348;2024-01-07T14:25:14;3.47;;;3.13;;
16522;SDS011;19889;52.546;13.348;2024-01-07T14:27:41;5.27;;;3.10;;
16522;SDS011;19889;52.546;13.348;2024-01-07T14:30:10;4.27;;;2.90;;
16522;SDS011;19889;52.546;13.348;2024-01-07T14:32:38;4.17;;;3.03;;
16522;SDS011;19889;52.546;13.348;2024-01-07T14:35:06;3.17;;;2.33;;
16522;SDS011;19889;52.546;13.348;2024-01-07T14:37:35;2.90;;;2.20;;